Date,TemperatureHighF,TemperatureAvgF,TemperatureLowF,DewpointHighF,DewpointAvgF,DewpointLowF,HumidityHigh,HumidityAvg,HumidityLow,PressureMaxIn,PressureMinIn,WindSpeedMaxMPH,WindSpeedAvgMPH,GustSpeedMaxMPH,PrecipitationSumIn
2013-7-1,70.0,64.8,63.0,67.6,62.1,59.1,97,91,83,30.09,29.92,16,3,16,0.42
2013-7-2,83.0,69.5,61.0,69.4,64.5,59.3,97,85,56,30.14,30.01,12,3,14,0.23
2013-7-3,85.0,74.3,65.0,70.8,66.6,63.9,99,79,51,30.23,30.13,13,3,15,0.01
2013-7-4,81.0,73.6,68.0,70.2,66.6,63.9,95,80,58,30.27,30.19,13,4,14,0.44
2013-7-5,82.0,72.9,66.0,69.5,66.7,63.0,97,82,60,30.22,30.15,23,4,25,0.00
2013-7-6,86.0,74.4,67.0,70.2,67.0,64.1,96,80,51,30.24,30.11,16,3,19,0.09
2013-7-7,79.0,72.5,68.0,69.5,65.3,61.6,95,79,59,30.16,30.05,18,6,20,0.01
2013-7-8,84.0,73.1,65.0,68.0,64.9,62.0,91,77,52,30.16,30.09,15,4,17,0.00
2013-7-9,82.0,72.4,67.0,71.7,67.9,64.9,95,86,67,30.14,29.99,13,3,14,0.16
2013-7-10,85.0,72.5,65.0,72.3,67.8,63.5,96,86,62,30.00,29.85,37,7,42,0.36
2013-7-11,73.0,65.9,60.0,64.5,56.2,49.5,95,72,46,30.12,29.93,16,4,16,0.00
2013-7-12,74.0,64.7,55.0,61.7,58.3,54.2,98,81,62,30.24,30.08,12,2,14,0.00
2013-7-13,78.0,69.7,59.0,67.2,61.7,55.5,92,77,62,30.34,30.20,13,2,13,0.00
2013-7-14,88.0,75.8,64.0,70.4,66.3,62.5,98,75,48,30.39,30.32,12,3,13,0.00
2013-7-15,88.0,77.4,67.0,72.7,69.0,65.5,96,77,54,30.40,30.33,10,2,14,0.00
2013-7-16,88.0,78.2,67.0,72.4,68.6,65.5,96,75,51,30.39,30.31,11,2,12,0.00
2013-7-17,89.0,78.9,68.0,75.5,70.7,66.5,96,77,52,30.35,30.22,15,2,16,0.00
2013-7-18,90.0,80.2,71.0,76.5,69.9,66.1,95,73,47,30.25,30.07,19,3,21,0.00
2013-7-19,89.0,79.8,73.0,73.3,70.0,67.3,90,73,52,30.10,29.86,23,8,24,0.07
2013-7-20,77.0,71.8,66.0,69.4,66.1,63.0,96,83,69,29.98,29.79,20,6,24,0.77
2013-7-21,81.0,70.6,63.0,68.1,62.7,59.3,97,78,52,30.05,29.97,11,2,11,0.00
2013-7-22,82.0,69.6,61.0,67.7,63.6,59.6,97,83,55,30.04,29.83,15,2,15,0.14
2013-7-23,81.0,69.4,62.0,66.6,64.2,60.0,98,85,54,29.84,29.72,16,4,18,1.05
2013-7-24,66.0,59.9,52.0,60.0,51.9,47.0,93,75,56,30.09,29.81,15,4,18,0.00
2013-7-25,74.0,60.2,47.0,53.0,49.8,45.9,98,72,44,30.18,30.08,14,2,16,0.00
2013-7-26,80.0,64.3,49.0,59.7,53.5,47.9,97,72,39,30.18,30.05,10,2,10,0.00
2013-7-27,72.0,65.0,57.0,64.3,59.5,55.6,95,83,65,30.06,29.88,16,4,17,0.08
2013-7-28,71.0,64.4,57.0,62.3,54.5,47.4,92,72,46,30.06,29.87,22,6,23,0.01
2013-7-29,69.0,61.4,56.0,54.8,51.8,48.2,86,72,49,30.23,30.04,20,6,24,0.00
2013-7-30,73.0,63.2,53.0,59.2,54.5,51.5,97,75,50,30.28,30.21,16,2,16,0.00
2013-7-31,78.0,65.7,52.0,60.5,55.4,50.9,97,72,47,30.23,29.99,11,2,13,0.00